Time;durP1;ratioP1;P1;durP2;ratioP2;P2;SDS_P1;SDS_P2;PMS_P1;PMS_P2;Temp;Humidity;BMP_temperature;BMP_pressure;BME280_temperature;BME280_humidity;BME280_pressure;Samples;Min_cycle;Max_cycle;Signal;HPM_P1;HPM_P2
2023/12/19 00:01:32;;;;;;;2.42;1.55;;;;;;;-144.57;100.00;62443.72;5015216;28;20042;-60
2023/12/19 00:03:58;;;;;;;2.40;1.50;;;;;;;-144.57;100.00;62443.72;5032993;28;20042;-59
2023/12/19 00:06:24;;;;;;;2.45;1.60;;;;;;;-144.57;100.00;62443.72;5033001;28;20522;-61
2023/12/19 00:08:50;;;;;;;2.10;1.40;;;;;;;-144.57;100.00;62443.72;5032735;28;20087;-60
2023/12/19 00:11:15;;;;;;;2.05;1.25;;;;;;;-144.57;100.00;62443.72;5033258;28;20042;-61
2023/12/19 00:13:41;;;;;;;1.50;1.40;;;;;;;-144.57;100.00;62443.72;5014797;28;20099;-60
2023/12/19 00:16:07;;;;;;;2.72;1.58;;;;;;;-144.57;100.00;62443.72;5033151;28;20410;-61
2023/12/19 00:18:33;;;;;;;1.63;1.17;;;;;;;-144.57;100.00;62443.72;5032161;28;20312;-59
2023/12/19 00:20:58;;;;;;;1.63;1.30;;;;;;;-144.57;100.00;62443.72;5032671;28;20049;-61
2023/12/19 00:23:26;;;;;;;1.98;1.40;;;;;;;-144.57;100.00;62443.72;5014522;28;20100;-59
2023/12/19 00:25:51;;;;;;;3.00;1.70;;;;;;;-144.57;100.00;62443.72;5032488;28;20041;-59
2023/12/19 00:28:17;;;;;;;2.33;1.42;;;;;;;-144.57;100.00;62443.72;5014697;28;20380;-60
2023/12/19 00:30:43;;;;;;;4.63;3.45;;;;;;;-144.57;100.00;62443.72;5032092;28;20044;-61
2023/12/19 00:33:08;;;;;;;1.80;1.40;;;;;;;-144.57;100.00;62443.72;5031986;28;20061;-60
2023/12/19 00:35:34;;;;;;;2.38;1.80;;;;;;;-144.57;100.00;62443.72;5032334;28;20033;-60
2023/12/19 00:38:04;;;;;;;2.10;1.42;;;;;;;-144.57;100.00;62443.72;5031853;28;20175;-59
2023/12/19 00:40:30;;;;;;;2.13;1.60;;;;;;;-144.57;100.00;62443.72;5014978;28;20073;-59
2023/12/19 00:42:56;;;;;;;2.40;1.50;;;;;;;-144.57;100.00;62443.72;5030581;28;20064;-59
2023/12/19 00:45:21;;;;;;;4.82;1.67;;;;;;;-144.57;100.00;62443.72;5032128;28;20041;-61
2023/12/19 00:47:47;;;;;;;1.58;1.30;;;;;;;-144.57;100.00;62443.72;5031434;28;20037;-60
2023/12/19 00:50:15;;;;;;;1.92;1.30;;;;;;;-144.57;100.00;62443.72;5014115;28;20426;-60
2023/12/19 00:52:42;;;;;;;3.03;1.42;;;;;;;-144.57;100.00;62443.72;5031407;28;20050;-60
2023/12/19 00:55:08;;;;;;;1.50;1.40;;;;;;;-144.57;100.00;62443.72;5031717;28;20120;-60
2023/12/19 00:57:33;;;;;;;3.35;1.58;;;;;;;-144.57;100.00;62443.72;5032096;28;20125;-58
2023/12/19 00:59:59;;;;;;;1.73;1.40;;;;;;;-144.57;100.00;62443.72;5031828;28;20037;-60
2023/12/19 01:02:27;;;;;;;2.17;1.80;;;;;;;-144.57;100.00;62443.72;5031809;28;20045;-60
2023/12/19 01:04:56;;;;;;;1.70;1.60;;;;;;;-144.57;100.00;62443.72;5031847;28;20114;-60
2023/12/19 01:07:23;;;;;;;3.30;1.92;;;;;;;-144.57;100.00;62443.72;5031595;28;20045;-60
2023/12/19 01:09:49;;;;;;;3.92;2.33;;;;;;;-144.57;100.00;62443.72;5032029;28;20034;-60
2023/12/19 01:12:15;;;;;;;3.22;2.30;;;;;;;-144.57;100.00;62443.72;5031428;28;20064;-59
2023/12/19 01:14:41;;;;;;;4.82;2.90;;;;;;;-144.57;100.00;62443.72;5014051;28;20029;-60
2023/12/19 01:17:07;;;;;;;5.07;3.05;;;;;;;-144.57;100.00;62443.72;4997451;28;20045;-58
2023/12/19 01:19:33;;;;;;;3.95;2.67;;;;;;;-144.57;100.00;62443.72;5031508;28;20037;-60
2023/12/19 01:21:59;;;;;;;5.45;3.42;;;;;;;-144.57;100.00;62443.72;5013537;28;20037;-61
2023/12/19 01:24:25;;;;;;;4.68;2.83;;;;;;;-144.57;100.00;62443.72;5030682;28;20045;-60
2023/12/19 01:26:51;;;;;;;4.10;2.85;;;;;;;-144.57;100.00;62443.72;5013941;28;20041;-60
2023/12/19 01:29:18;;;;;;;4.32;2.92;;;;;;;-144.57;100.00;62443.72;5013604;28;20045;-59
2023/12/19 01:31:44;;;;;;;4.88;2.97;;;;;;;-144.57;100.00;62443.72;5013943;28;20041;-60
2023/12/19 01:34:11;;;;;;;4.85;2.90;;;;;;;-144.57;100.00;62443.72;5031567;28;20050;-60
2023/12/19 01:36:39;;;;;;;3.00;2.47;;;;;;;-144.57;100.00;62443.72;5031683;28;20046;-60
2023/12/19 01:39:05;;;;;;;3.17;2.30;;;;;;;-144.57;100.00;62443.72;5013973;28;20426;-61
2023/12/19 01:41:31;;;;;;;2.70;2.10;;;;;;;-144.57;100.00;62443.72;5031371;28;20045;-61
2023/12/19 01:43:58;;;;;;;4.47;2.13;;;;;;;-144.57;100.00;62443.72;5031622;28;20041;-60
2023/12/19 01:46:24;;;;;;;5.40;1.80;;;;;;;-144.57;100.00;62443.72;4997404;28;20411;-61
2023/12/19 01:48:49;;;;;;;2.58;2.20;;;;;;;-144.57;100.00;62443.72;5031456;28;20046;-59
2023/12/19 01:51:15;;;;;;;2.45;1.70;;;;;;;-144.57;100.00;62443.72;5031519;28;20049;-60
2023/12/19 01:53:44;;;;;;;2.35;1.95;;;;;;;-144.57;100.00;62443.72;5013591;28;20124;-60
2023/12/19 01:56:11;;;;;;;1.60;1.50;;;;;;;-144.57;100.00;62443.72;5013432;28;20458;-60
2023/12/19 01:58:37;;;;;;;1.80;1.70;;;;;;;-144.57;100.00;62443.72;5031441;28;20044;-60
2023/12/19 02:01:04;;;;;;;2.20;1.52;;;;;;;-144.57;100.00;62443.72;5031332;28;20041;-61
2023/12/19 02:03:31;;;;;;;2.38;1.65;;;;;;;-144.57;100.00;62443.72;5013360;28;20041;-60
2023/12/19 02:05:58;;;;;;;1.73;1.63;;;;;;;-144.57;100.00;62443.72;5013411;28;20419;-58
2023/12/19 02:08:28;;;;;;;2.15;1.60;;;;;;;-144.57;100.00;62443.72;5031941;28;20056;-59
2023/12/19 02:10:53;;;;;;;1.77;1.50;;;;;;;-144.57;100.00;62443.72;5031490;28;20037;-60
2023/12/19 02:13:21;;;;;;;2.53;1.48;;;;;;;-144.57;100.00;62443.72;5031768;28;20376;-60
2023/12/19 02:15:48;;;;;;;1.60;1.50;;;;;;;-144.57;100.00;62443.72;5031431;28;20052;-60
2023/12/19 02:18:16;;;;;;;1.92;1.40;;;;;;;-144.57;100.00;62443.72;5031824;28;20052;-59
2023/12/19 02:20:42;;;;;;;2.72;1.65;;;;;;;-144.57;100.00;62443.72;5031476;28;20056;-60
2023/12/19 02:23:09;;;;;;;2.55;1.90;;;;;;;-144.57;100.00;62443.72;5031673;28;20038;-59
2023/12/19 02:25:34;;;;;;;1.80;1.42;;;;;;;-144.57;100.00;62443.72;5013747;28;20037;-59
2023/12/19 02:28:00;;;;;;;1.98;1.77;;;;;;;-144.57;100.00;62443.72;5013456;28;20045;-59
2023/12/19 02:30:27;;;;;;;2.92;2.00;;;;;;;-144.57;100.00;62443.72;4996456;28;20042;-60
2023/12/19 02:32:53;;;;;;;2.88;1.52;;;;;;;-144.57;100.00;62443.72;4997155;28;20060;-59
2023/12/19 02:35:19;;;;;;;2.20;1.83;;;;;;;-144.57;100.00;62443.72;5013686;28;20049;-59
2023/12/19 02:37:45;;;;;;;3.35;1.70;;;;;;;-144.57;100.00;62443.72;5031262;28;20128;-59
2023/12/19 02:40:12;;;;;;;2.40;1.88;;;;;;;-144.57;100.00;62443.72;5031354;28;20041;-61
2023/12/19 02:42:42;;;;;;;3.97;2.10;;;;;;;-144.57;100.00;62443.72;5031127;28;20046;-58
2023/12/19 02:45:09;;;;;;;3.50;2.30;;;;;;;-144.57;100.00;62443.72;5031357;28;20041;-60
2023/12/19 02:47:35;;;;;;;3.30;2.42;;;;;;;-144.57;100.00;62443.72;4996753;28;20600;-59
2023/12/19 02:50:01;;;;;;;2.75;2.30;;;;;;;-144.57;100.00;62443.72;5013292;28;20049;-61
2023/12/19 02:52:30;;;;;;;3.42;2.45;;;;;;;-144.57;100.00;62443.72;5030839;28;20506;-60
2023/12/19 02:54:56;;;;;;;3.60;2.08;;;;;;;-144.57;100.00;62443.72;5029729;28;20049;-61
2023/12/19 02:57:21;;;;;;;2.53;2.15;;;;;;;-144.57;100.00;62443.72;5013427;28;20414;-60
2023/12/19 02:59:47;;;;;;;3.80;2.30;;;;;;;-144.57;100.00;62443.72;5030638;28;20495;-60
2023/12/19 03:02:13;;;;;;;3.80;2.22;;;;;;;-144.57;100.00;62443.72;5012334;28;20132;-60
2023/12/19 03:04:39;;;;;;;2.83;2.05;;;;;;;-144.57;100.00;62443.72;5030522;28;20099;-60
2023/12/19 03:07:05;;;;;;;2.60;1.85;;;;;;;-144.57;100.00;62443.72;5032612;28;20418;-60
2023/12/19 03:09:31;;;;;;;3.53;2.42;;;;;;;-144.57;100.00;62443.72;5015957;28;20049;-59
2023/12/19 03:12:03;;;;;;;3.13;1.90;;;;;;;-144.57;100.00;62443.72;5034539;28;20047;-60
2023/12/19 03:14:33;;;;;;;2.45;2.00;;;;;;;-144.57;100.00;62443.72;5033932;28;20068;-59
2023/12/19 03:17:00;;;;;;;4.13;1.70;;;;;;;-144.57;100.00;62443.72;5034119;28;20374;-60
2023/12/19 03:19:26;;;;;;;3.75;1.63;;;;;;;-144.57;100.00;62443.72;5016675;28;20510;-60
2023/12/19 03:21:52;;;;;;;3.40;2.08;;;;;;;-144.57;100.00;62443.72;5033804;28;20052;-61
2023/12/19 03:24:17;;;;;;;2.28;1.98;;;;;;;-144.57;100.00;62443.72;5034381;28;20398;-60
2023/12/19 03:26:43;;;;;;;2.72;2.03;;;;;;;-144.57;100.00;62443.72;5034007;28;20530;-60
2023/12/19 03:29:09;;;;;;;2.63;2.00;;;;;;;-144.57;100.00;62443.72;5033561;28;20033;-62
2023/12/19 03:31:34;;;;;;;2.38;1.88;;;;;;;-144.57;100.00;62443.72;5033952;28;20045;-60
2023/12/19 03:34:02;;;;;;;2.42;2.03;;;;;;;-144.57;100.00;62443.72;5034052;28;20387;-59
2023/12/19 03:36:28;;;;;;;3.15;2.30;;;;;;;-144.57;100.00;62443.72;5033819;28;20060;-59
2023/12/19 03:38:54;;;;;;;2.03;1.77;;;;;;;-144.57;100.00;62443.72;5032973;28;20041;-59
2023/12/19 03:41:20;;;;;;;2.97;2.00;;;;;;;-144.57;100.00;62443.72;5033625;28;20060;-61
2023/12/19 03:43:45;;;;;;;3.25;2.08;;;;;;;-144.57;100.00;62443.72;5033537;28;20037;-61
2023/12/19 03:46:12;;;;;;;3.38;2.47;;;;;;;-144.57;100.00;62443.72;5033831;28;20052;-62
2023/12/19 03:48:38;;;;;;;4.57;2.30;;;;;;;-144.57;100.00;62443.72;5033636;28;20045;-60
2023/12/19 03:51:04;;;;;;;2.75;1.98;;;;;;;-144.57;100.00;62443.72;5034009;28;20388;-61
2023/12/19 03:53:30;;;;;;;4.03;2.20;;;;;;;-144.57;100.00;62443.72;5015697;28;20065;-60
2023/12/19 03:55:56;;;;;;;2.20;2.00;;;;;;;-144.57;100.00;62443.72;5033710;28;20131;-60
2023/12/19 03:58:22;;;;;;;2.03;1.70;;;;;;;-144.57;100.00;62443.72;5033506;28;20497;-58
2023/12/19 04:00:48;;;;;;;2.03;1.83;;;;;;;-144.57;100.00;62443.72;5033476;28;20132;-61
2023/12/19 04:03:14;;;;;;;3.85;2.88;;;;;;;-144.57;100.00;62443.72;5015385;28;20037;-61
2023/12/19 04:05:40;;;;;;;2.40;2.20;;;;;;;-144.57;100.00;62443.72;5033400;28;20042;-60
2023/12/19 04:08:05;;;;;;;2.30;2.00;;;;;;;-144.57;100.00;62443.72;5033530;28;20046;-60
2023/12/19 04:10:31;;;;;;;2.63;1.70;;;;;;;-144.57;100.00;62443.72;5033476;28;20479;-61
2023/12/19 04:12:57;;;;;;;2.15;1.80;;;;;;;-144.57;100.00;62443.72;5033053;28;20041;-60
2023/12/19 04:15:23;;;;;;;2.92;1.92;;;;;;;-144.57;100.00;62443.72;5015477;28;20069;-61
2023/12/19 04:17:49;;;;;;;1.52;1.42;;;;;;;-144.57;100.00;62443.72;5032995;28;20048;-61
2023/12/19 04:20:15;;;;;;;1.52;1.40;;;;;;;-144.57;100.00;62443.72;5015375;28;20053;-61
2023/12/19 04:22:42;;;;;;;1.38;1.27;;;;;;;-144.57;100.00;62443.72;5014993;28;20038;-60
2023/12/19 04:25:07;;;;;;;1.90;1.63;;;;;;;-144.57;100.00;62443.72;5033428;28;20049;-60
2023/12/19 04:27:33;;;;;;;2.30;1.50;;;;;;;-144.57;100.00;62443.72;5033769;28;20233;-59
2023/12/19 04:29:59;;;;;;;1.70;1.50;;;;;;;-144.57;100.00;62443.72;5033720;28;20045;-58
2023/12/19 04:32:24;;;;;;;1.30;1.20;;;;;;;-144.57;100.00;62443.72;5033124;28;20411;-60
2023/12/19 04:34:50;;;;;;;1.88;1.52;;;;;;;-144.57;100.00;62443.72;5033020;28;20046;-60
2023/12/19 04:37:16;;;;;;;1.50;1.40;;;;;;;-144.57;100.00;62443.72;5050906;28;20056;-61
2023/12/19 04:39:42;;;;;;;2.17;1.42;;;;;;;-144.57;100.00;62443.72;5053177;28;20107;-58
2023/12/19 04:42:07;;;;;;;1.40;1.30;;;;;;;-144.57;100.00;62443.72;5052686;28;20044;-60
2023/12/19 04:44:34;;;;;;;1.35;1.25;;;;;;;-144.57;100.00;62443.72;5052933;28;20057;-60
2023/12/19 04:47:00;;;;;;;1.25;1.15;;;;;;;-144.57;100.00;62443.72;5052468;28;20406;-60
2023/12/19 04:49:25;;;;;;;2.17;1.30;;;;;;;-144.57;100.00;62443.72;5005851;28;20049;-59
2023/12/19 04:51:52;;;;;;;1.48;1.38;;;;;;;-144.57;100.00;62443.72;5032527;28;20052;-59
2023/12/19 04:54:18;;;;;;;1.50;1.15;;;;;;;-144.57;100.00;62443.72;5032825;28;20134;-58
2023/12/19 04:56:44;;;;;;;1.20;1.10;;;;;;;-144.57;100.00;62443.72;5032671;28;20087;-61
2023/12/19 04:59:09;;;;;;;1.50;1.40;;;;;;;-144.57;100.00;62443.72;4998443;28;20457;-61
2023/12/19 05:01:39;;;;;;;2.63;1.67;;;;;;;-144.57;100.00;62443.72;5032307;28;20065;-59
2023/12/19 05:04:09;;;;;;;;;;;;;;;-144.57;100.00;62443.72;5032651;28;20120;-58
2023/12/19 05:06:34;;;;;;;1.33;1.10;;;;;;;-144.57;100.00;62443.72;5032195;28;19941;-60
2023/12/19 05:09:00;;;;;;;2.90;1.33;;;;;;;-144.57;100.00;62443.72;5032226;28;20040;-60
2023/12/19 05:11:26;;;;;;;1.85;1.38;;;;;;;-144.57;100.00;62443.72;5014306;28;20048;-63
2023/12/19 05:13:52;;;;;;;2.40;1.67;;;;;;;-144.57;100.00;62443.72;5032328;28;20103;-59
2023/12/19 05:16:18;;;;;;;2.05;1.50;;;;;;;-144.57;100.00;62443.72;5014321;28;20132;-62
2023/12/19 05:18:45;;;;;;;1.58;1.40;;;;;;;-144.57;100.00;62443.72;5031958;28;20121;-59
2023/12/19 05:21:11;;;;;;;1.45;1.35;;;;;;;-144.57;100.00;62443.72;5032185;28;20060;-61
2023/12/19 05:23:39;;;;;;;1.10;1.00;;;;;;;-144.57;100.00;62443.72;5032160;28;20072;-57
2023/12/19 05:26:06;;;;;;;1.30;1.20;;;;;;;-144.57;100.00;62443.72;5032086;28;20045;-59
2023/12/19 05:28:33;;;;;;;1.60;1.10;;;;;;;-144.57;100.00;62443.72;4997261;28;20048;-60
2023/12/19 05:30:59;;;;;;;1.17;1.08;;;;;;;-144.57;100.00;62443.72;4981086;28;20045;-60
2023/12/19 05:33:26;;;;;;;1.52;1.30;;;;;;;-144.57;100.00;62443.72;5031934;28;20058;-61
2023/12/19 05:35:52;;;;;;;1.33;1.23;;;;;;;-144.57;100.00;62443.72;5013727;28;20048;-61
2023/12/19 05:38:19;;;;;;;1.20;1.10;;;;;;;-144.57;100.00;62443.72;5031623;28;20049;-63
2023/12/19 05:40:45;;;;;;;1.33;1.05;;;;;;;-144.57;100.00;62443.72;5031366;28;20053;-61
2023/12/19 05:43:13;;;;;;;1.20;1.10;;;;;;;-144.57;100.00;62443.72;5031847;28;20320;-62
2023/12/19 05:45:38;;;;;;;1.00;1.00;;;;;;;-144.57;100.00;62443.72;5030861;28;20155;-62
2023/12/19 05:48:04;;;;;;;1.10;1.00;;;;;;;-144.57;100.00;62443.72;5029760;28;20120;-61
2023/12/19 05:50:31;;;;;;;1.40;1.30;;;;;;;-144.57;100.00;62443.72;5030332;28;20050;-63
2023/12/19 05:52:57;;;;;;;3.15;1.40;;;;;;;-144.57;100.00;62443.72;5011950;28;20462;-61
2023/12/19 05:55:23;;;;;;;1.63;1.20;;;;;;;-144.57;100.00;62443.72;5030334;28;20124;-61
2023/12/19 05:57:50;;;;;;;3.08;1.80;;;;;;;-144.57;100.00;62443.72;5029888;28;20041;-62
2023/12/19 06:00:17;;;;;;;1.65;1.40;;;;;;;-144.57;100.00;62443.72;5017429;28;20206;-61
2023/12/19 06:02:44;;;;;;;3.10;1.83;;;;;;;-144.57;100.00;62443.72;5013146;28;20042;-61
2023/12/19 06:05:11;;;;;;;1.42;1.33;;;;;;;-144.57;100.00;62443.72;5031196;28;20041;-63
2023/12/19 06:07:37;;;;;;;1.77;1.50;;;;;;;-144.57;100.00;62443.72;5029951;28;20041;-61
2023/12/19 06:10:11;;;;;;;1.88;1.70;;;;;;;-144.57;100.00;62443.72;5029655;28;20038;-62
2023/12/19 06:12:37;;;;;;;1.60;1.50;;;;;;;-144.57;100.00;62443.72;5031232;28;20033;-61
2023/12/19 06:15:11;;;;;;;2.13;1.65;;;;;;;-144.57;100.00;62443.72;5029396;28;20594;-63
2023/12/19 06:17:41;;;;;;;2.05;1.50;;;;;;;-144.57;100.00;62443.72;5014695;28;20037;-61
2023/12/19 06:20:08;;;;;;;2.20;1.52;;;;;;;-144.57;100.00;62443.72;5031080;28;20037;-61
2023/12/19 06:22:34;;;;;;;1.60;1.50;;;;;;;-144.57;100.00;62443.72;5031129;28;20073;-61
2023/12/19 06:24:59;;;;;;;1.67;1.35;;;;;;;-144.57;100.00;62443.72;5030597;28;20084;-60
2023/12/19 06:27:27;;;;;;;5.68;1.85;;;;;;;-144.57;100.00;62443.72;5013537;28;20067;-62
2023/12/19 06:29:56;;;;;;;2.00;1.50;;;;;;;-144.57;100.00;62443.72;5030651;28;20458;-62
2023/12/19 06:32:22;;;;;;;4.40;1.90;;;;;;;-144.57;100.00;62443.72;5030153;28;20057;-60
2023/12/19 06:34:48;;;;;;;1.70;1.60;;;;;;;-144.57;100.00;62443.72;5030442;28;20045;-60
2023/12/19 06:37:14;;;;;;;1.95;1.67;;;;;;;-144.57;100.00;62443.72;5028810;28;20041;-59
2023/12/19 06:39:39;;;;;;;1.92;1.60;;;;;;;-144.57;100.00;62443.72;5030105;28;20037;-61
2023/12/19 06:42:05;;;;;;;1.55;1.40;;;;;;;-144.57;100.00;62443.72;5032834;28;20360;-59
2023/12/19 06:44:31;;;;;;;2.67;1.35;;;;;;;-144.57;100.00;62443.72;5034340;28;20521;-61
2023/12/19 06:46:59;;;;;;;1.25;1.15;;;;;;;-144.57;100.00;62443.72;5033025;28;20465;-59
2023/12/19 06:49:26;;;;;;;1.30;1.20;;;;;;;-144.57;100.00;62443.72;4979929;28;20141;-59
2023/12/19 06:51:52;;;;;;;1.20;1.10;;;;;;;-144.57;100.00;62443.72;5030720;28;20194;-61
2023/12/19 06:54:18;;;;;;;1.20;1.10;;;;;;;-144.57;100.00;62443.72;5031173;28;20038;-61
2023/12/19 06:56:44;;;;;;;1.65;1.25;;;;;;;-144.57;100.00;62443.72;5032490;28;20041;-61
2023/12/19 06:59:10;;;;;;;1.50;1.30;;;;;;;-144.57;100.00;62443.72;5032233;28;20045;-60
2023/12/19 07:01:36;;;;;;;3.25;1.58;;;;;;;-144.57;100.00;62443.72;5033665;28;20472;-62
2023/12/19 07:04:03;;;;;;;1.88;1.33;;;;;;;-144.57;100.00;62443.72;5032804;28;20041;-60
2023/12/19 07:06:30;;;;;;;1.80;1.48;;;;;;;-144.57;100.00;62443.72;5034313;28;20046;-61
2023/12/19 07:08:55;;;;;;;1.38;1.27;;;;;;;-144.57;100.00;62443.72;5034432;28;20077;-61
2023/12/19 07:11:22;;;;;;;1.27;1.10;;;;;;;-144.57;100.00;62443.72;5033111;28;20608;-60
2023/12/19 07:13:48;;;;;;;1.33;1.23;;;;;;;-144.57;100.00;62443.72;5034376;28;20042;-61
2023/12/19 07:16:14;;;;;;;1.40;1.25;;;;;;;-144.57;100.00;62443.72;5033123;28;20522;-60
2023/12/19 07:18:40;;;;;;;1.75;1.30;;;;;;;-144.57;100.00;62443.72;5034195;28;20045;-61
2023/12/19 07:21:07;;;;;;;2.30;1.35;;;;;;;-144.57;100.00;62443.72;5033754;28;20157;-60
2023/12/19 07:23:33;;;;;;;1.50;1.30;;;;;;;-144.57;100.00;62443.72;5033662;28;20052;-60
2023/12/19 07:25:58;;;;;;;2.20;1.70;;;;;;;-144.57;100.00;62443.72;5032412;28;20046;-62
2023/12/19 07:28:24;;;;;;;1.55;1.45;;;;;;;-144.57;100.00;62443.72;5032555;28;20140;-61
2023/12/19 07:30:50;;;;;;;1.90;1.50;;;;;;;-144.57;100.00;62443.72;5033979;28;20565;-63
2023/12/19 07:33:16;;;;;;;2.40;1.90;;;;;;;-144.57;100.00;62443.72;5033470;28;20123;-61
2023/12/19 07:35:41;;;;;;;1.90;1.70;;;;;;;-144.57;100.00;62443.72;5032681;28;20389;-60
2023/12/19 07:38:08;;;;;;;1.92;1.67;;;;;;;-144.57;100.00;62443.72;5032364;28;20037;-61
2023/12/19 07:40:35;;;;;;;2.00;1.80;;;;;;;-144.57;100.00;62443.72;5032558;28;20080;-60
2023/12/19 07:43:02;;;;;;;1.83;1.70;;;;;;;-144.57;100.00;62443.72;5033561;28;20045;-61
2023/12/19 07:45:28;;;;;;;2.75;1.55;;;;;;;-144.57;100.00;62443.72;5032246;28;20055;-61
2023/12/19 07:47:54;;;;;;;1.58;1.48;;;;;;;-144.57;100.00;62443.72;5031128;28;20124;-60
2023/12/19 07:50:21;;;;;;;2.10;1.70;;;;;;;-144.57;100.00;62443.72;5033541;28;20045;-61
2023/12/19 07:52:46;;;;;;;1.67;1.58;;;;;;;-144.57;100.00;62443.72;5032669;28;20037;-61
2023/12/19 07:55:12;;;;;;;1.98;1.48;;;;;;;-144.57;100.00;62443.72;5015372;28;20562;-62
2023/12/19 07:57:39;;;;;;;1.67;1.58;;;;;;;-144.57;100.00;62443.72;5033083;28;20462;-61
2023/12/19 08:00:06;;;;;;;1.70;1.60;;;;;;;-144.57;100.00;62443.72;5033067;28;20088;-63
2023/12/19 08:02:38;;;;;;;1.85;1.73;;;;;;;-144.57;100.00;62443.72;5005610;28;20096;-61
2023/12/19 08:05:04;;;;;;;3.03;1.98;;;;;;;-144.57;100.00;62443.72;5033590;28;20045;-64
2023/12/19 08:07:30;;;;;;;1.90;1.70;;;;;;;-144.57;100.00;62443.72;5032940;28;20553;-61
2023/12/19 08:09:56;;;;;;;1.98;1.80;;;;;;;-144.57;100.00;62443.72;5033390;28;20045;-61
2023/12/19 08:12:22;;;;;;;2.38;1.70;;;;;;;-144.57;100.00;62443.72;5032864;28;20081;-62
2023/12/19 08:14:48;;;;;;;1.88;1.65;;;;;;;-144.57;100.00;62443.72;5033297;28;20033;-62
2023/12/19 08:17:15;;;;;;;2.40;2.20;;;;;;;-144.57;100.00;62443.72;5031817;28;20388;-60
2023/12/19 08:19:41;;;;;;;2.63;2.00;;;;;;;-144.57;100.00;62443.72;5032019;28;20049;-62
2023/12/19 08:22:08;;;;;;;2.20;2.00;;;;;;;-144.57;100.00;62443.72;5031391;28;20052;-62
2023/12/19 08:24:34;;;;;;;3.13;1.92;;;;;;;-144.57;100.00;62443.72;5033403;28;20128;-62
2023/12/19 08:26:59;;;;;;;3.13;2.13;;;;;;;-144.57;100.00;62443.72;5031335;28;20119;-61
2023/12/19 08:29:25;;;;;;;3.08;2.13;;;;;;;-144.57;100.00;62443.72;5031559;28;20060;-61
2023/12/19 08:31:51;;;;;;;2.90;2.47;;;;;;;-144.57;100.00;62443.72;5031169;28;20052;-63
2023/12/19 08:34:18;;;;;;;5.15;2.65;;;;;;;-144.57;100.00;62443.72;5032601;28;20062;-62
2023/12/19 08:36:44;;;;;;;3.33;2.15;;;;;;;-144.57;100.00;62443.72;5032679;28;20447;-63
2023/12/19 08:39:10;;;;;;;3.45;2.20;;;;;;;-144.57;100.00;62443.72;5032532;28;20050;-62
2023/12/19 08:41:45;;;;;;;2.20;1.77;;;;;;;-144.57;100.00;62443.72;5032474;28;20076;-62
2023/12/19 08:44:10;;;;;;;2.22;1.92;;;;;;;-144.57;100.00;62443.72;5031562;28;20077;-62
2023/12/19 08:46:36;;;;;;;2.17;1.80;;;;;;;-144.57;100.00;62443.72;5027306;28;20548;-58
2023/12/19 08:49:02;;;;;;;2.42;1.70;;;;;;;-144.57;100.00;62443.72;5032398;28;20071;-60
2023/12/19 08:51:28;;;;;;;2.00;1.80;;;;;;;-144.57;100.00;62443.72;4998169;28;20037;-61
2023/12/19 08:53:54;;;;;;;1.92;1.42;;;;;;;-144.57;100.00;62443.72;5031890;28;20082;-61
2023/12/19 08:56:20;;;;;;;2.35;1.70;;;;;;;-144.57;100.00;62443.72;5032218;28;20419;-62
2023/12/19 08:58:48;;;;;;;1.90;1.50;;;;;;;-144.57;100.00;62443.72;5031845;28;20050;-60
2023/12/19 09:01:14;;;;;;;2.13;1.70;;;;;;;-144.57;100.00;62443.72;5032172;28;20049;-62
2023/12/19 09:03:40;;;;;;;1.60;1.35;;;;;;;-144.57;100.00;62443.72;5032072;28;20053;-59
2023/12/19 09:06:07;;;;;;;2.33;1.67;;;;;;;-144.57;100.00;62443.72;5030745;28;20045;-64
2023/12/19 09:08:32;;;;;;;2.42;1.70;;;;;;;-144.57;100.00;62443.72;5032852;28;20097;-61
2023/12/19 09:10:58;;;;;;;1.92;1.65;;;;;;;-144.57;100.00;62443.72;5013374;28;20041;-61
2023/12/19 09:13:24;;;;;;;3.53;2.38;;;;;;;-144.57;100.00;62443.72;5031483;28;20049;-61
2023/12/19 09:15:50;;;;;;;3.67;2.42;;;;;;;-144.57;100.00;62443.72;5031640;28;20041;-61
2023/12/19 09:18:17;;;;;;;3.08;2.10;;;;;;;-144.57;100.00;62443.72;5013327;28;20085;-60
2023/12/19 09:20:43;;;;;;;3.42;1.77;;;;;;;-144.57;100.00;62443.72;5014273;28;20041;-61
2023/12/19 09:23:08;;;;;;;2.72;2.03;;;;;;;-144.57;100.00;62443.72;5031923;28;20448;-61
2023/12/19 09:25:34;;;;;;;2.40;2.05;;;;;;;-144.57;100.00;62443.72;5032142;28;20470;-62
2023/12/19 09:28:00;;;;;;;3.55;2.05;;;;;;;-144.57;100.00;62443.72;5030354;28;20081;-61
2023/12/19 09:30:26;;;;;;;3.35;2.28;;;;;;;-144.57;100.00;62443.72;5031750;28;20414;-62
2023/12/19 09:32:52;;;;;;;3.75;1.80;;;;;;;-144.57;100.00;62443.72;5030850;28;20056;-61
2023/12/19 09:35:18;;;;;;;3.03;1.90;;;;;;;-144.57;100.00;62443.72;5031351;28;20069;-62
2023/12/19 09:37:44;;;;;;;1.60;1.50;;;;;;;-144.57;100.00;62443.72;5031004;28;20079;-62
2023/12/19 09:40:19;;;;;;;3.13;1.83;;;;;;;-144.57;100.00;62443.72;5031734;28;20518;-60
2023/12/19 09:42:45;;;;;;;2.58;1.70;;;;;;;-144.57;100.00;62443.72;5031438;28;20586;-60
2023/12/19 09:45:14;;;;;;;1.75;1.40;;;;;;;-144.57;100.00;62443.72;5030116;28;20073;-62
2023/12/19 09:47:45;;;;;;;2.17;1.67;;;;;;;-144.57;100.00;62443.72;5029973;28;20053;-63
2023/12/19 09:50:15;;;;;;;2.10;1.70;;;;;;;-144.57;100.00;62443.72;5013966;28;20045;-61
2023/12/19 09:52:41;;;;;;;1.80;1.50;;;;;;;-144.57;100.00;62443.72;5030453;28;20056;-61
2023/12/19 09:55:07;;;;;;;3.90;1.92;;;;;;;-144.57;100.00;62443.72;5031661;28;20060;-62
2023/12/19 09:57:35;;;;;;;4.00;1.98;;;;;;;-144.57;100.00;62443.72;5029764;28;20037;-62
2023/12/19 10:00:08;;;;;;;3.63;1.90;;;;;;;-144.57;100.00;62443.72;4995079;28;20463;-62
2023/12/19 10:02:34;;;;;;;3.30;2.90;;;;;;;-144.57;100.00;62443.72;5017302;28;20455;-62
2023/12/19 10:05:00;;;;;;;3.55;1.80;;;;;;;-144.57;100.00;62443.72;5028339;28;20604;-64
2023/12/19 10:07:29;;;;;;;1.83;1.73;;;;;;;-144.57;100.00;62443.72;5013688;28;20053;-62
2023/12/19 10:09:56;;;;;;;2.22;1.70;;;;;;;-144.57;100.00;62443.72;5005621;28;20037;-59
2023/12/19 10:12:27;;;;;;;2.83;1.73;;;;;;;-144.57;100.00;62443.72;4980361;28;20046;-61
2023/12/19 10:15:16;;;;;;;4.55;1.90;;;;;;;-144.57;100.00;62443.72;4999671;28;20456;-61
2023/12/19 10:18:05;;;;;;;4.60;2.97;;;;;;;-144.57;100.00;62443.72;5030173;28;20049;-61
2023/12/19 10:20:32;;;;;;;2.63;1.58;;;;;;;-144.57;100.00;62443.72;5029947;28;20114;-61
2023/12/19 10:23:05;;;;;;;1.60;1.50;;;;;;;-144.57;100.00;62443.72;5022659;28;20149;-61
2023/12/19 10:25:32;;;;;;;1.50;1.40;;;;;;;-144.57;100.00;62443.72;5030894;28;20044;-61
2023/12/19 10:28:10;;;;;;;2.30;1.60;;;;;;;-144.57;100.00;62443.72;5022131;28;20052;-60
2023/12/19 10:30:55;;;;;;;2.45;1.30;;;;;;;-144.57;100.00;62443.72;5030119;28;20044;-60
2023/12/19 10:33:45;;;;;;;;;;;;;;;-144.57;100.00;62443.72;4979500;28;20053;-62
2023/12/19 10:36:26;;;;;;;3.40;1.75;;;;;;;-144.57;100.00;62443.72;5013004;28;19932;-62
2023/12/19 10:38:58;;;;;;;1.60;1.50;;;;;;;-144.57;100.00;62443.72;5017505;28;20231;-62
2023/12/19 10:41:30;;;;;;;3.47;1.80;;;;;;;-144.57;100.00;62443.72;4964718;28;20042;-60
2023/12/19 10:44:00;;;;;;;2.05;1.77;;;;;;;-144.57;100.00;62443.72;4976054;28;20129;-63
2023/12/19 10:46:28;;;;;;;2.28;1.50;;;;;;;-144.57;100.00;62443.72;5019010;28;20049;-62
2023/12/19 10:48:56;;;;;;;2.35;1.63;;;;;;;-144.57;100.00;62443.72;5029093;28;20042;-62
2023/12/19 10:51:32;;;;;;;2.83;1.60;;;;;;;-144.57;100.00;62443.72;5029884;28;20042;-62
2023/12/19 10:54:11;;;;;;;2.95;1.90;;;;;;;-144.57;100.00;62443.72;5030700;28;20049;-62
2023/12/19 10:57:10;;;;;;;2.38;1.67;;;;;;;-144.57;100.00;62443.72;5023124;28;20408;-62
2023/12/19 11:00:17;;;;;;;3.22;1.77;;;;;;;-144.57;100.00;62443.72;5017731;28;20058;-61
2023/12/19 11:02:45;;;;;;;2.53;1.70;;;;;;;-144.57;100.00;62443.72;5027163;28;20033;-62
2023/12/19 11:05:38;;;;;;;3.42;1.77;;;;;;;-144.57;100.00;62443.72;5014472;28;20041;-60
2023/12/19 11:08:10;;;;;;;2.22;1.60;;;;;;;-144.57;100.00;62443.72;5029746;28;20042;-61
2023/12/19 11:10:39;;;;;;;4.93;1.80;;;;;;;-144.57;100.00;62443.72;5006944;28;20038;-61